Time;durP1;ratioP1;P1;durP2;ratioP2;P2;SDS_P1;SDS_P2;PMS_P1;PMS_P2;Temp;Humidity;BMP_temperature;BMP_pressure;BME280_temperature;BME280_humidity;BME280_pressure;Samples;Min_cycle;Max_cycle;Signal;HPM_P1;HPM_P2
2023/07/20 00:00:08;;;;;;;3.60;3.20;;;;;;;27.20;71.39;100895.73;106896;1259;25334;-51
2023/07/20 00:02:41;;;;;;;3.80;3.20;;;;;;;27.18;71.48;100893.96;106861;1270;25394;-48
2023/07/20 00:05:09;;;;;;;4.80;3.80;;;;;;;27.18;71.58;100887.77;107173;1257;25353;-51
2023/07/20 00:07:36;;;;;;;5.80;4.00;;;;;;;27.17;71.63;100878.77;107143;1266;25360;-51
2023/07/20 00:10:03;;;;;;;4.70;3.80;;;;;;;27.16;71.65;100867.96;107080;1265;24231;-52
2023/07/20 00:12:31;;;;;;;3.70;3.40;;;;;;;27.15;71.67;100861.65;106785;1268;22584;-51
2023/07/20 00:14:58;;;;;;;6.00;3.30;;;;;;;27.15;71.73;100869.52;107135;1267;25350;-51
2023/07/20 00:17:25;;;;;;;4.90;3.30;;;;;;;27.14;71.74;100868.33;107149;1267;25363;-51
2023/07/20 00:19:52;;;;;;;6.50;3.70;;;;;;;27.13;71.88;100867.55;106962;1257;24377;-51
2023/07/20 00:22:19;;;;;;;7.60;3.60;;;;;;;27.12;71.83;100863.15;106833;1267;25347;-53
2023/07/20 00:24:46;;;;;;;6.00;3.80;;;;;;;27.11;71.85;100862.95;107127;1265;22575;-51
2023/07/20 00:27:13;;;;;;;7.70;3.80;;;;;;;27.10;71.85;100865.84;107114;1263;25350;-51
2023/07/20 00:29:40;;;;;;;6.40;3.70;;;;;;;27.09;71.92;100865.65;107068;1266;25412;-51
2023/07/20 00:32:09;;;;;;;6.60;3.60;;;;;;;27.08;71.91;100870.34;107192;1269;22536;-51
2023/07/20 00:34:36;;;;;;;5.10;4.20;;;;;;;27.06;71.97;100863.20;106964;1263;25325;-51
2023/07/20 00:37:04;;;;;;;7.20;3.90;;;;;;;27.06;72.00;100862.14;107038;1266;25328;-51
2023/07/20 00:39:31;;;;;;;6.60;3.90;;;;;;;27.05;71.97;100863.16;106976;1263;25479;-51
2023/07/20 00:41:58;;;;;;;3.90;3.50;;;;;;;27.05;71.99;100859.08;106863;1256;24384;-51
2023/07/20 00:44:27;;;;;;;7.10;3.90;;;;;;;27.03;72.00;100859.39;106995;1259;25453;-52
2023/07/20 00:46:54;;;;;;;4.80;3.80;;;;;;;27.02;71.99;100860.36;106921;1261;25347;-51
2023/07/20 00:49:21;;;;;;;5.50;3.70;;;;;;;27.02;72.04;100858.80;106437;1269;25309;-51
2023/07/20 00:51:48;;;;;;;6.00;3.70;;;;;;;27.01;72.06;100852.48;106918;1266;24631;-51
2023/07/20 00:54:16;;;;;;;5.00;3.70;;;;;;;27.00;72.05;100855.36;107152;1259;25474;-50
2023/07/20 00:56:43;;;;;;;4.10;3.40;;;;;;;26.99;72.12;100861.33;106923;1266;25334;-50
2023/07/20 00:59:13;;;;;;;6.40;3.70;;;;;;;26.99;72.27;100867.25;106896;1265;25335;-50
2023/07/20 01:01:40;;;;;;;7.20;3.90;;;;;;;26.98;72.35;100867.50;107060;1267;25531;-50
2023/07/20 01:04:08;;;;;;;7.60;4.20;;;;;;;26.97;72.40;100867.05;106846;1266;25230;-50
2023/07/20 01:06:39;;;;;;;6.70;3.90;;;;;;;26.97;72.49;100864.58;106826;1257;25412;-50
2023/07/20 01:09:47;;;;;;;7.40;3.80;;;;;;;26.96;72.60;100868.73;107088;1256;25335;-50
2023/07/20 01:12:20;;;;;;;5.50;3.80;;;;;;;26.96;72.55;100875.31;106498;1275;25410;-51
2023/07/20 01:14:47;;;;;;;9.10;3.70;;;;;;;26.96;72.59;100872.48;106365;1272;25383;-51
2023/07/20 01:17:14;;;;;;;6.40;3.90;;;;;;;26.96;72.58;100871.25;106584;1264;25395;-50
2023/07/20 01:19:42;;;;;;;4.70;3.60;;;;;;;26.96;72.64;100869.28;106372;1264;25484;-50
2023/07/20 01:22:47;;;;;;;6.50;4.30;;;;;;;27.10;71.99;100868.33;106063;1278;25356;-50
2023/07/20 01:25:37;;;;;;;8.30;4.70;;;;;;;27.16;71.70;100869.09;106433;1264;25211;-49
2023/07/20 01:28:11;;;;;;;5.70;3.80;;;;;;;27.16;71.68;100868.67;105980;1284;25423;-49
2023/07/20 01:30:51;;;;;;;7.90;4.20;;;;;;;27.16;71.66;100864.03;106210;1277;25628;-49
2023/07/20 01:33:18;;;;;;;8.00;3.80;;;;;;;27.17;71.61;100862.23;106220;1264;25342;-49
2023/07/20 01:35:55;;;;;;;6.50;4.30;;;;;;;27.17;71.74;100855.98;106091;1282;25500;-49
2023/07/20 01:38:22;;;;;;;7.00;4.50;;;;;;;27.17;71.80;100852.04;106183;1270;25286;-51
2023/07/20 01:40:49;;;;;;;8.20;4.60;;;;;;;27.17;71.81;100853.66;106077;1266;25390;-50
2023/07/20 01:43:16;;;;;;;6.80;4.20;;;;;;;27.17;71.81;100850.85;106071;1271;25366;-49
2023/07/20 01:45:44;;;;;;;4.90;3.50;;;;;;;27.17;71.87;100846.56;106093;1280;25362;-50
2023/07/20 01:48:13;;;;;;;5.90;3.80;;;;;;;27.16;71.91;100845.20;106483;1276;22538;-49
2023/07/20 01:50:41;;;;;;;12.60;3.80;;;;;;;27.17;71.88;100843.89;106414;1272;25350;-50
2023/07/20 01:53:09;;;;;;;6.50;3.80;;;;;;;27.17;71.81;100842.84;106355;1264;25287;-49
2023/07/20 01:55:36;;;;;;;7.90;3.80;;;;;;;27.16;71.81;100844.83;106357;1275;25345;-49
2023/07/20 01:58:03;;;;;;;5.50;3.90;;;;;;;27.15;71.81;100842.83;106442;1275;24664;-50
2023/07/20 02:00:34;;;;;;;7.20;4.50;;;;;;;27.15;71.73;100841.88;106424;1265;22549;-50
2023/07/20 02:03:01;;;;;;;7.20;3.80;;;;;;;27.15;71.77;100846.93;106385;1272;22666;-49
2023/07/20 02:05:28;;;;;;;6.70;4.10;;;;;;;27.14;71.71;100848.95;106731;1267;25453;-49
2023/07/20 02:07:56;;;;;;;5.80;3.90;;;;;;;27.14;71.72;100847.92;106910;1273;25328;-49
2023/07/20 02:10:23;;;;;;;7.20;4.50;;;;;;;27.13;71.72;100848.65;107170;1260;25325;-50
2023/07/20 02:12:51;;;;;;;7.40;4.40;;;;;;;27.13;71.75;100840.11;106913;1256;25336;-50
2023/07/20 02:15:18;;;;;;;8.70;4.00;;;;;;;27.13;71.76;100839.11;107049;1257;25386;-49
2023/07/20 02:17:46;;;;;;;8.40;3.70;;;;;;;27.12;71.77;100836.13;106902;1267;25414;-49
2023/07/20 02:20:14;;;;;;;5.90;3.50;;;;;;;27.11;71.73;100832.31;106861;1269;25337;-49
2023/07/20 02:22:41;;;;;;;9.70;3.90;;;;;;;27.10;71.78;100827.23;107086;1263;25389;-50
2023/07/20 02:25:08;;;;;;;5.40;3.40;;;;;;;27.10;71.70;100832.23;106833;1269;25505;-49
2023/07/20 02:27:36;;;;;;;10.80;4.40;;;;;;;27.10;71.81;100831.86;107035;1266;25348;-49
2023/07/20 02:30:04;;;;;;;4.70;3.50;;;;;;;27.08;71.82;100831.14;107093;1264;25412;-49
2023/07/20 02:32:32;;;;;;;5.20;3.90;;;;;;;27.04;71.99;100831.70;107103;1267;25604;-49
2023/07/20 02:34:59;;;;;;;4.40;3.80;;;;;;;26.95;72.32;100829.29;107082;1257;25364;-49
2023/07/20 02:37:26;;;;;;;7.10;3.80;;;;;;;26.87;72.72;100823.45;107011;1272;22537;-49
2023/07/20 02:39:53;;;;;;;5.30;4.20;;;;;;;26.86;72.71;100819.11;107029;1267;23194;-49
2023/07/20 02:42:22;;;;;;;8.70;4.30;;;;;;;26.85;72.63;100813.48;107053;1265;25376;-49
2023/07/20 02:44:52;;;;;;;5.90;3.70;;;;;;;26.85;72.73;100817.09;107071;1261;23386;-50
2023/07/20 02:47:19;;;;;;;7.90;4.60;;;;;;;26.84;72.72;100818.35;107072;1269;25322;-50
2023/07/20 02:49:46;;;;;;;7.40;4.10;;;;;;;26.84;72.71;100823.56;106954;1260;25481;-49
2023/07/20 02:52:13;;;;;;;6.80;3.90;;;;;;;26.84;72.72;100826.40;107085;1264;25377;-50
2023/07/20 02:54:45;;;;;;;11.10;4.00;;;;;;;26.83;72.67;100825.41;107008;1265;25349;-50
2023/07/20 02:57:12;;;;;;;8.90;4.60;;;;;;;26.83;72.73;100825.55;106865;1261;25372;-49
2023/07/20 02:59:40;;;;;;;6.00;3.90;;;;;;;26.84;72.64;100829.25;107177;1261;25491;-49
2023/07/20 03:02:09;;;;;;;6.40;4.70;;;;;;;26.85;72.75;100824.55;106858;1262;25312;-49
2023/07/20 03:04:37;;;;;;;10.40;4.30;;;;;;;26.85;72.73;100827.54;107041;1264;25485;-49
2023/07/20 03:07:05;;;;;;;6.80;3.60;;;;;;;26.86;72.74;100827.31;107208;1264;25344;-49
2023/07/20 03:09:34;;;;;;;6.20;3.80;;;;;;;26.86;72.64;100825.14;107130;1260;25481;-50
2023/07/20 03:12:02;;;;;;;5.40;3.80;;;;;;;26.87;72.55;100826.98;107089;1257;22540;-49
2023/07/20 03:14:29;;;;;;;6.00;4.00;;;;;;;26.88;72.60;100821.77;107155;1265;25350;-49
2023/07/20 03:16:56;;;;;;;4.80;3.70;;;;;;;26.89;72.66;100821.48;107131;1265;25326;-49
2023/07/20 03:19:23;;;;;;;5.80;3.90;;;;;;;26.91;72.72;100816.73;107184;1267;25308;-49
2023/07/20 03:21:50;;;;;;;5.20;4.40;;;;;;;26.91;72.73;100810.59;107145;1267;25325;-49
2023/07/20 03:24:19;;;;;;;6.70;3.80;;;;;;;26.93;72.74;100805.30;107126;1261;22542;-49
2023/07/20 03:26:47;;;;;;;6.80;4.40;;;;;;;26.95;72.71;100801.20;107071;1257;25321;-49
2023/07/20 03:29:15;;;;;;;5.70;3.90;;;;;;;26.97;72.84;100798.00;106860;1265;25364;-49
2023/07/20 03:31:44;;;;;;;6.30;4.00;;;;;;;26.98;72.77;100797.54;107019;1264;25399;-50
2023/07/20 03:34:10;;;;;;;4.80;4.10;;;;;;;27.00;72.67;100798.63;106841;1261;24252;-49
2023/07/20 03:36:41;;;;;;;5.90;4.20;;;;;;;27.01;72.43;100797.45;107052;1263;25345;-50
2023/07/20 03:39:08;;;;;;;6.00;4.40;;;;;;;27.01;72.33;100798.68;106825;1265;25409;-49
2023/07/20 03:41:35;;;;;;;6.20;3.80;;;;;;;27.02;72.23;100804.68;106816;1270;25342;-49
2023/07/20 03:44:02;;;;;;;8.80;4.10;;;;;;;27.02;72.11;100806.08;107045;1261;25385;-48
2023/07/20 03:46:29;;;;;;;5.40;4.30;;;;;;;27.02;72.10;100806.75;106873;1269;25347;-49
2023/07/20 03:48:56;;;;;;;8.50;4.40;;;;;;;27.03;72.04;100813.29;107039;1263;25469;-51
2023/07/20 03:51:23;;;;;;;7.50;4.30;;;;;;;27.04;72.00;100812.13;106999;1261;24428;-49
2023/07/20 03:53:51;;;;;;;6.80;4.20;;;;;;;27.05;72.01;100812.39;107053;1264;22535;-49
2023/07/20 03:56:18;;;;;;;7.80;4.80;;;;;;;27.07;72.11;100813.80;106998;1265;25489;-49
2023/07/20 03:58:45;;;;;;;4.90;4.20;;;;;;;27.09;72.01;100819.33;106865;1272;25370;-49
2023/07/20 04:01:13;;;;;;;6.10;3.70;;;;;;;27.12;71.95;100814.46;107094;1267;25344;-49
2023/07/20 04:03:40;;;;;;;7.90;4.60;;;;;;;27.14;71.94;100812.83;107122;1259;25350;-49
2023/07/20 04:06:09;;;;;;;5.00;4.10;;;;;;;27.17;71.84;100809.83;107162;1260;25469;-48
2023/07/20 04:08:37;;;;;;;7.70;4.30;;;;;;;27.20;71.71;100804.77;106771;1275;25356;-49
2023/07/20 04:11:04;;;;;;;7.40;4.10;;;;;;;27.22;71.68;100803.14;107102;1263;25353;-49
2023/07/20 04:13:35;;;;;;;6.20;4.50;;;;;;;27.24;71.66;100801.92;107074;1264;25336;-49
2023/07/20 04:16:02;;;;;;;7.20;4.20;;;;;;;27.26;71.52;100804.05;107165;1252;22555;-49
2023/07/20 04:18:30;;;;;;;6.90;4.80;;;;;;;27.28;71.51;100801.19;106865;1272;25398;-50
2023/07/20 04:20:57;;;;;;;7.20;4.40;;;;;;;27.30;71.40;100801.34;107024;1257;25372;-49
2023/07/20 04:23:26;;;;;;;6.10;4.40;;;;;;;27.33;71.42;100798.79;107145;1267;25478;-49
2023/07/20 04:25:56;;;;;;;7.50;4.70;;;;;;;27.35;71.30;100798.75;106645;1274;25360;-49
2023/07/20 04:28:30;;;;;;;7.30;4.50;;;;;;;27.37;71.25;100792.88;107017;1271;25460;-50
2023/07/20 04:31:10;;;;;;;7.40;4.10;;;;;;;27.40;71.03;100791.08;106901;1264;25345;-50
2023/07/20 04:33:39;;;;;;;6.00;4.10;;;;;;;27.42;71.07;100791.30;106644;1260;22711;-50
2023/07/20 04:36:07;;;;;;;6.10;4.10;;;;;;;27.44;70.95;100791.10;106843;1266;25366;-50
2023/07/20 04:38:36;;;;;;;7.70;4.40;;;;;;;27.47;70.86;100795.09;107010;1257;23136;-52
2023/07/20 04:41:20;;;;;;;8.40;4.70;;;;;;;27.49;70.86;100794.15;107024;1266;25481;-50
2023/07/20 04:43:49;;;;;;;8.80;4.30;;;;;;;27.52;70.81;100792.63;107125;1267;22654;-49
2023/07/20 04:46:23;;;;;;;7.60;4.60;;;;;;;27.55;70.66;100791.11;107066;1260;25517;-49
2023/07/20 04:48:51;;;;;;;8.50;4.40;;;;;;;27.58;70.65;100788.66;106873;1267;23896;-49
2023/07/20 04:51:20;;;;;;;7.90;4.60;;;;;;;27.76;70.04;100790.20;107039;1261;24660;-49
2023/07/20 04:53:50;;;;;;;4.80;4.10;;;;;;;27.83;69.54;100787.20;107097;1265;25362;-49
2023/07/20 04:56:17;;;;;;;5.80;4.20;;;;;;;27.87;69.50;100784.70;106835;1270;25325;-49
2023/07/20 04:58:45;;;;;;;11.40;4.90;;;;;;;27.87;69.53;100783.31;107062;1264;25333;-50
2023/07/20 05:01:12;;;;;;;8.20;4.80;;;;;;;27.89;69.47;100783.77;107006;1267;25435;-49
2023/07/20 05:03:39;;;;;;;4.80;3.60;;;;;;;27.93;69.57;100782.55;107097;1264;25384;-49
2023/07/20 05:06:09;;;;;;;9.10;4.70;;;;;;;27.98;69.43;100782.45;107084;1267;22540;-49
2023/07/20 05:08:37;;;;;;;8.10;5.00;;;;;;;28.02;69.31;100782.98;107030;1264;25382;-49
2023/07/20 05:11:05;;;;;;;6.80;4.40;;;;;;;28.11;68.99;100782.59;106907;1270;25334;-49
2023/07/20 05:13:32;;;;;;;5.60;4.50;;;;;;;28.18;68.84;100783.73;106912;1267;25366;-49
2023/07/20 05:15:59;;;;;;;7.30;4.10;;;;;;;28.26;68.72;100777.33;107102;1264;25497;-49
2023/07/20 05:18:27;;;;;;;8.90;4.60;;;;;;;28.34;68.25;100767.88;106920;1267;22621;-49
2023/07/20 05:20:55;;;;;;;6.20;4.00;;;;;;;28.44;68.06;100766.38;107148;1264;25394;-49
2023/07/20 05:23:26;;;;;;;7.80;4.30;;;;;;;28.59;68.05;100768.36;106762;1257;22545;-49
2023/07/20 05:25:56;;;;;;;6.30;4.00;;;;;;;28.80;67.47;100763.58;106734;1267;24329;-49
2023/07/20 05:28:23;;;;;;;8.10;4.00;;;;;;;29.05;66.72;100761.88;106730;1267;22548;-49
2023/07/20 05:30:54;;;;;;;8.50;4.40;;;;;;;29.29;65.59;100761.65;106858;1268;25321;-50
2023/07/20 05:33:21;;;;;;;10.10;4.10;;;;;;;29.50;65.01;100756.77;106694;1270;25559;-49
2023/07/20 05:35:48;;;;;;;9.10;4.50;;;;;;;29.71;64.29;100754.50;106376;1273;25390;-49
2023/07/20 05:38:15;;;;;;;9.60;3.60;;;;;;;29.91;63.15;100751.92;106832;1266;25480;-50
2023/07/20 05:40:44;;;;;;;7.30;4.10;;;;;;;30.06;62.28;100753.67;106803;1266;25387;-49
2023/07/20 05:43:11;;;;;;;5.60;3.80;;;;;;;30.16;61.52;100755.88;106863;1259;25413;-50
2023/07/20 05:45:41;;;;;;;9.70;4.00;;;;;;;30.19;61.29;100753.38;106751;1259;25507;-49
2023/07/20 05:48:13;;;;;;;5.90;4.40;;;;;;;30.20;61.00;100747.74;106747;1257;22537;-50
2023/07/20 05:50:44;;;;;;;6.50;3.90;;;;;;;30.24;60.79;100751.29;106576;1262;22544;-49
2023/07/20 05:53:11;;;;;;;4.80;3.70;;;;;;;30.27;60.76;100743.66;106799;1272;22552;-49
2023/07/20 05:55:39;;;;;;;6.30;3.80;;;;;;;30.31;60.43;100741.60;106993;1264;25340;-49
2023/07/20 05:58:06;;;;;;;5.70;3.60;;;;;;;30.38;60.26;100737.11;106830;1259;25453;-49
2023/07/20 06:00:33;;;;;;;4.60;3.90;;;;;;;30.48;60.16;100739.23;107052;1256;25521;-49
2023/07/20 06:03:00;;;;;;;6.20;3.70;;;;;;;30.61;59.64;100747.44;107057;1267;25383;-50
2023/07/20 06:05:29;;;;;;;5.40;3.50;;;;;;;30.71;59.12;100753.30;106812;1267;25365;-49
2023/07/20 06:07:57;;;;;;;7.00;4.30;;;;;;;30.80;59.06;100753.05;107179;1260;25443;-49
2023/07/20 06:10:24;;;;;;;9.50;4.00;;;;;;;30.88;58.64;100746.33;107150;1263;25373;-49
2023/07/20 06:12:51;;;;;;;5.60;3.60;;;;;;;30.94;58.31;100742.65;106972;1264;25401;-49
2023/07/20 06:15:36;;;;;;;8.60;3.80;;;;;;;30.98;58.01;100735.77;107056;1267;25373;-50
2023/07/20 06:18:04;;;;;;;5.50;3.90;;;;;;;30.99;57.87;100736.01;107090;1256;25482;-49
2023/07/20 06:20:31;;;;;;;10.00;4.80;;;;;;;30.99;57.70;100734.50;106917;1259;25373;-49
2023/07/20 06:22:58;;;;;;;10.20;4.20;;;;;;;31.01;57.61;100736.08;107069;1255;25440;-49
2023/07/20 06:25:25;;;;;;;8.50;4.30;;;;;;;31.03;57.25;100735.52;107018;1257;25324;-49
2023/07/20 06:27:53;;;;;;;9.40;4.10;;;;;;;31.04;56.95;100735.06;107106;1262;25425;-49
2023/07/20 06:30:20;;;;;;;7.90;4.10;;;;;;;31.02;56.87;100733.52;107109;1267;25345;-49
2023/07/20 06:32:50;;;;;;;11.70;4.60;;;;;;;30.99;56.98;100730.46;106880;1258;25364;-49
2023/07/20 06:35:17;;;;;;;5.10;3.50;;;;;;;30.96;57.10;100730.59;107031;1257;25343;-49
2023/07/20 06:37:44;;;;;;;6.80;4.00;;;;;;;30.94;57.06;100731.48;107124;1253;22527;-49
2023/07/20 06:40:12;;;;;;;7.10;3.80;;;;;;;30.93;57.07;100731.02;107162;1256;25332;-49
2023/07/20 06:42:42;;;;;;;10.00;4.20;;;;;;;30.93;57.16;100732.67;106851;1260;25356;-49
2023/07/20 06:45:12;;;;;;;7.10;4.00;;;;;;;30.93;57.11;100734.72;106865;1267;25409;-50
2023/07/20 06:47:40;;;;;;;4.60;3.70;;;;;;;30.92;57.02;100738.49;107032;1257;25337;-49
2023/07/20 06:50:07;;;;;;;6.40;4.10;;;;;;;30.92;56.91;100739.27;107086;1255;22530;-49
2023/07/20 06:52:35;;;;;;;7.20;4.00;;;;;;;30.91;56.93;100735.79;107116;1260;24002;-49
2023/07/20 06:55:03;;;;;;;9.70;4.90;;;;;;;30.91;56.90;100736.50;106900;1270;24371;-49
2023/07/20 06:57:32;;;;;;;4.50;3.60;;;;;;;30.88;56.90;100733.23;107030;1258;25443;-49
2023/07/20 06:59:59;;;;;;;7.20;4.30;;;;;;;30.87;56.73;100737.45;107108;1253;25373;-48
2023/07/20 07:02:26;;;;;;;11.10;4.20;;;;;;;30.89;56.75;100739.79;107137;1252;25475;-49
2023/07/20 07:04:54;;;;;;;7.40;4.00;;;;;;;30.88;56.91;100740.45;107150;1264;24368;-49
2023/07/20 07:07:25;;;;;;;6.80;4.30;;;;;;;30.86;57.01;100742.73;107174;1252;22656;-49
2023/07/20 07:09:54;;;;;;;8.30;4.30;;;;;;;30.86;57.00;100736.17;106753;1267;25331;-49
2023/07/20 07:12:24;;;;;;;9.70;4.00;;;;;;;30.83;57.02;100734.99;107043;1252;25519;-49
2023/07/20 07:14:50;;;;;;;10.10;4.50;;;;;;;30.81;57.04;100734.19;107150;1263;22523;-50
2023/07/20 07:17:18;;;;;;;7.60;4.20;;;;;;;30.78;57.24;100733.77;107061;1251;22708;-49
2023/07/20 07:19:46;;;;;;;10.60;4.50;;;;;;;30.73;57.44;100730.36;107138;1265;25380;-49
2023/07/20 07:22:16;;;;;;;9.60;4.10;;;;;;;30.70;57.63;100730.86;107053;1259;25481;-49
2023/07/20 07:24:43;;;;;;;7.90;4.60;;;;;;;30.72;57.87;100732.14;107130;1263;25311;-49
2023/07/20 07:27:11;;;;;;;8.00;4.40;;;;;;;30.78;57.68;100731.92;107058;1261;25403;-49
2023/07/20 07:29:38;;;;;;;9.00;4.20;;;;;;;30.86;57.58;100731.46;107133;1264;25332;-49
2023/07/20 07:32:07;;;;;;;6.60;4.20;;;;;;;30.94;57.47;100726.65;107065;1251;25364;-49
2023/07/20 07:34:34;;;;;;;9.10;4.60;;;;;;;31.04;57.35;100723.27;106773;1260;22530;-49
2023/07/20 07:37:01;;;;;;;8.70;3.90;;;;;;;31.14;56.96;100727.50;107063;1262;25354;-49
2023/07/20 07:39:29;;;;;;;8.30;4.30;;;;;;;31.23;56.87;100724.33;107059;1258;25357;-49
2023/07/20 07:42:02;;;;;;;6.70;4.20;;;;;;;31.32;56.50;100720.52;106699;1261;25318;-49
2023/07/20 07:44:30;;;;;;;8.40;4.70;;;;;;;31.42;56.22;100720.30;107097;1251;22527;-49
2023/07/20 07:46:57;;;;;;;8.30;4.20;;;;;;;31.52;56.04;100716.02;107106;1252;25366;-49
2023/07/20 07:49:24;;;;;;;9.40;4.40;;;;;;;31.60;55.96;100714.05;107068;1267;25322;-49
2023/07/20 07:51:52;;;;;;;6.10;4.20;;;;;;;31.65;55.80;100709.15;106856;1268;25401;-49
2023/07/20 07:54:19;;;;;;;8.30;4.20;;;;;;;31.69;55.59;100708.55;106788;1267;25413;-50
2023/07/20 07:56:46;;;;;;;8.60;4.60;;;;;;;31.71;55.23;100706.64;106666;1269;293506;-49
2023/07/20 07:59:13;;;;;;;6.00;3.90;;;;;;;31.74;55.15;100708.34;107126;1262;24601;-49
2023/07/20 08:01:40;;;;;;;6.70;4.10;;;;;;;31.75;55.15;100708.95;106877;1257;25405;-49
2023/07/20 08:04:08;;;;;;;7.30;4.40;;;;;;;31.75;55.26;100709.92;106825;1273;25360;-50
2023/07/20 08:06:35;;;;;;;9.60;5.10;;;;;;;31.76;55.25;100712.58;107128;1264;25361;-49
2023/07/20 08:09:02;;;;;;;9.40;4.20;;;;;;;31.76;55.25;100707.15;107035;1258;25321;-49
2023/07/20 08:11:30;;;;;;;7.20;4.30;;;;;;;31.76;55.02;100707.18;106776;1256;25343;-50
2023/07/20 08:13:57;;;;;;;10.20;4.20;;;;;;;31.75;54.87;100707.84;107013;1260;22520;-50
2023/07/20 08:16:24;;;;;;;7.10;4.50;;;;;;;31.75;54.92;100707.14;107035;1256;25360;-51
2023/07/20 08:18:55;;;;;;;7.60;4.40;;;;;;;31.74;54.99;100701.61;106979;1254;25350;-50
2023/07/20 08:21:23;;;;;;;10.30;4.60;;;;;;;31.74;55.02;100702.05;106936;1258;25321;-51
2023/07/20 08:23:50;;;;;;;7.90;4.30;;;;;;;31.74;54.94;100706.02;106766;1267;25306;-51
2023/07/20 08:26:22;;;;;;;6.70;4.50;;;;;;;31.73;54.96;100713.59;107058;1253;23867;-50
2023/07/20 08:28:50;;;;;;;7.80;4.50;;;;;;;31.73;54.96;100713.29;107116;1264;22527;-49
2023/07/20 08:31:17;;;;;;;7.40;4.30;;;;;;;31.70;55.10;100709.41;107082;1263;24205;-50
2023/07/20 08:33:44;;;;;;;12.00;4.20;;;;;;;31.69;55.18;100705.80;107157;1261;25377;-49
2023/07/20 08:36:11;;;;;;;10.20;4.20;;;;;;;31.69;55.21;100701.70;106763;1272;25870;-49
2023/07/20 08:38:39;;;;;;;9.40;4.20;;;;;;;31.69;55.22;100702.23;107094;1257;23859;-49
2023/07/20 08:41:06;;;;;;;10.60;5.30;;;;;;;31.70;55.28;100702.63;106728;1264;25408;-49
2023/07/20 08:43:33;;;;;;;6.90;4.50;;;;;;;31.70;55.33;100700.11;106811;1261;25340;-49
2023/07/20 08:46:00;;;;;;;7.80;4.50;;;;;;;31.70;55.35;100698.86;107027;1259;25467;-50
2023/07/20 08:48:27;;;;;;;9.90;4.60;;;;;;;31.71;55.32;100703.84;107040;1260;25322;-49
2023/07/20 08:50:54;;;;;;;6.60;4.00;;;;;;;31.72;55.38;100710.30;106929;1261;25332;-49
2023/07/20 08:53:21;;;;;;;6.00;4.40;;;;;;;31.73;55.35;100715.38;106905;1266;25545;-49
2023/07/20 08:55:51;;;;;;;8.50;4.60;;;;;;;31.73;55.29;100713.92;107089;1264;25349;-49
2023/07/20 08:58:18;;;;;;;8.30;4.60;;;;;;;31.72;55.12;100718.08;107179;1253;22661;-49
2023/07/20 09:00:45;;;;;;;10.80;4.40;;;;;;;31.68;55.16;100714.84;107054;1258;25479;-49
2023/07/20 09:03:13;;;;;;;12.40;4.70;;;;;;;31.66;55.24;100718.34;107147;1253;25339;-49
2023/07/20 09:05:41;;;;;;;7.20;4.70;;;;;;;31.65;55.28;100715.48;106822;1268;25349;-49
2023/07/20 09:08:08;;;;;;;11.50;4.90;;;;;;;31.62;55.34;100712.33;106904;1264;25370;-49
2023/07/20 09:10:36;;;;;;;8.50;4.90;;;;;;;31.59;55.44;100716.45;107010;1263;24334;-49
2023/07/20 09:13:04;;;;;;;6.30;4.10;;;;;;;31.55;55.38;100720.13;106927;1270;25397;-49
2023/07/20 09:15:33;;;;;;;8.60;3.90;;;;;;;31.51;55.51;100727.25;107195;1262;25341;-49
2023/07/20 09:18:01;;;;;;;7.50;4.40;;;;;;;31.45;55.54;100736.29;107059;1264;25360;-49
2023/07/20 09:20:31;;;;;;;9.20;4.50;;;;;;;31.39;55.59;100740.02;107115;1256;25349;-49
2023/07/20 09:22:58;;;;;;;8.20;4.40;;;;;;;31.34;55.67;100739.15;106827;1260;25363;-50
2023/07/20 09:25:25;;;;;;;8.70;4.70;;;;;;;31.29;55.81;100744.16;107071;1264;25350;-49
2023/07/20 09:27:56;;;;;;;10.40;5.10;;;;;;;31.25;55.99;100743.68;106857;1265;22559;-49
2023/07/20 09:30:25;;;;;;;9.00;5.10;;;;;;;31.23;56.18;100745.56;107138;1263;25507;-49
2023/07/20 09:32:58;;;;;;;6.50;4.10;;;;;;;31.18;56.28;100746.41;107079;1252;25229;-49
2023/07/20 09:35:25;;;;;;;8.40;4.50;;;;;;;31.16;56.36;100744.52;107074;1257;25350;-49
2023/07/20 09:37:58;;;;;;;10.70;4.70;;;;;;;31.13;56.45;100743.56;107093;1263;24256;-49
2023/07/20 09:40:28;;;;;;;10.90;4.50;;;;;;;31.10;56.67;100744.05;107190;1252;24370;-49
2023/07/20 09:43:04;;;;;;;7.10;4.40;;;;;;;31.07;56.71;100745.16;107115;1256;25290;-49
2023/07/20 09:45:39;;;;;;;12.60;4.70;;;;;;;31.04;57.01;100736.35;106863;1267;25469;-49
2023/07/20 09:48:26;;;;;;;7.80;4.50;;;;;;;31.00;57.09;100734.77;107021;1263;25318;-49
2023/07/20 09:50:56;;;;;;;8.60;4.50;;;;;;;30.99;57.25;100737.38;107011;1262;25458;-49
2023/07/20 09:53:26;;;;;;;8.20;4.60;;;;;;;30.98;57.36;100732.50;106954;1267;22526;-49
2023/07/20 09:55:54;;;;;;;12.60;5.40;;;;;;;30.98;57.55;100725.55;107104;1255;25370;-49
2023/07/20 09:58:21;;;;;;;5.90;4.50;;;;;;;30.99;57.69;100723.95;107067;1252;25447;-50
2023/07/20 10:00:50;;;;;;;7.80;4.30;;;;;;;31.02;57.68;100724.70;107094;1255;25393;-49
2023/07/20 10:03:21;;;;;;;7.30;4.30;;;;;;;31.07;57.70;100723.61;106874;1267;25322;-49
2023/07/20 10:06:08;;;;;;;9.20;4.10;;;;;;;31.14;57.59;100717.86;107153;1251;23287;-50
2023/07/20 10:08:41;;;;;;;11.30;4.60;;;;;;;31.21;57.30;100711.29;107092;1264;25403;-49
2023/07/20 10:11:12;;;;;;;7.50;4.10;;;;;;;31.28;57.22;100707.15;107093;1262;25350;-49
2023/07/20 10:13:39;;;;;;;7.40;4.00;;;;;;;31.35;57.24;100713.54;106759;1269;25321;-49
2023/07/20 10:16:10;;;;;;;8.80;4.20;;;;;;;31.41;56.99;100726.73;107119;1256;25368;-49
2023/07/20 10:18:59;;;;;;;5.60;3.90;;;;;;;31.45;56.67;100729.98;106996;1259;25351;-49
2023/07/20 10:21:26;;;;;;;5.40;4.00;;;;;;;31.48;56.30;100732.16;107163;1262;25360;-49
2023/07/20 10:23:57;;;;;;;12.40;4.70;;;;;;;31.46;56.12;100729.91;106832;1270;25332;-49
2023/07/20 10:26:26;;;;;;;8.10;4.10;;;;;;;31.42;56.27;100729.11;106798;1255;25406;-49
2023/07/20 10:28:53;;;;;;;9.90;4.60;;;;;;;31.35;56.53;100725.95;107126;1252;22642;-49
2023/07/20 10:31:20;;;;;;;8.00;4.60;;;;;;;31.27;56.90;100718.74;106802;1269;25473;-49
2023/07/20 10:33:50;;;;;;;11.90;4.70;;;;;;;31.18;57.48;100714.54;107119;1262;25332;-49
2023/07/20 10:36:22;;;;;;;8.70;4.70;;;;;;;31.13;58.90;100722.66;106827;1262;25350;-49
2023/07/20 10:38:57;;;;;;;8.90;4.40;;;;;;;31.10;60.17;100731.92;106919;1262;22546;-49
2023/07/20 10:41:39;;;;;;;6.50;4.20;;;;;;;31.11;61.34;100724.27;107052;1259;25338;-50
2023/07/20 10:44:07;;;;;;;7.80;4.60;;;;;;;31.14;61.95;100715.64;106842;1265;24266;-50
2023/07/20 10:46:38;;;;;;;7.30;4.70;;;;;;;31.17;61.47;100712.79;107062;1263;22653;-49
2023/07/20 10:49:07;;;;;;;7.90;5.00;;;;;;;31.19;60.91;100707.08;107132;1256;25296;-49
2023/07/20 10:51:50;;;;;;;9.20;4.90;;;;;;;31.19;60.48;100702.61;106770;1268;25373;-50
2023/07/20 10:54:19;;;;;;;9.00;4.50;;;;;;;31.16;59.65;100700.94;107104;1257;27041;-49
2023/07/20 10:56:49;;;;;;;10.00;5.50;;;;;;;31.12;59.58;100707.17;107098;1264;25329;-50
2023/07/20 10:59:22;;;;;;;6.30;4.00;;;;;;;31.04;59.49;100714.98;106896;1259;25361;-50
2023/07/20 11:01:59;;;;;;;9.40;4.80;;;;;;;30.93;59.77;100714.20;107102;1264;25377;-50
2023/07/20 11:04:43;;;;;;;7.80;4.50;;;;;;;30.81;60.58;100720.96;107032;1253;22545;-50
2023/07/20 11:07:20;;;;;;;11.40;5.20;;;;;;;30.68;61.50;100715.01;106798;1269;25332;-51
2023/07/20 11:09:47;;;;;;;9.50;4.70;;;;;;;30.58;62.16;100716.91;107152;1262;25474;-50
2023/07/20 11:12:17;;;;;;;10.30;4.90;;;;;;;30.49;62.58;100723.42;107141;1259;25482;-51
2023/07/20 11:14:54;;;;;;;11.60;4.50;;;;;;;30.34;62.92;100732.15;107171;1252;25507;-50
2023/07/20 11:17:22;;;;;;;15.20;6.60;;;;;;;30.15;63.70;100746.86;107267;1264;25346;-51
2023/07/20 11:19:49;;;;;;;35.80;11.30;;;;;;;29.98;64.99;100759.35;106856;1257;25474;-51
2023/07/20 11:22:20;;;;;;;35.80;11.30;;;;;;;29.77;63.25;100784.27;107071;1263;25482;-51
2023/07/20 11:24:48;;;;;;;23.60;9.50;;;;;;;29.34;59.79;100805.02;107095;1253;25357;-53